createdAt,value
2022-08-27T00:00:54.114Z,6.00
2022-08-27T00:11:00.116Z,5.90
2022-08-27T00:21:06.924Z,5.80
2022-08-27T00:31:13.291Z,5.40
2022-08-27T00:41:21.051Z,6.50
2022-08-27T00:51:27.782Z,6.20
2022-08-27T01:01:55.830Z,6.10
2022-08-27T01:12:02.080Z,6.30
2022-08-27T01:22:19.926Z,6.20
2022-08-27T01:32:32.037Z,6.10
2022-08-27T01:42:40.176Z,5.50
2022-08-27T02:02:51.712Z,6.20
2022-08-27T02:12:57.484Z,6.10
2022-08-27T02:23:04.722Z,5.90
2022-08-27T02:33:10.831Z,5.70
2022-08-27T02:43:25.270Z,6.20
2022-08-27T02:53:31.658Z,5.60
2022-08-27T03:03:37.475Z,6.40
2022-08-27T03:13:46.557Z,7.30
2022-08-27T03:23:53.581Z,6.50
2022-08-27T03:34:02.531Z,6.50
2022-08-27T03:44:08.491Z,7.10
2022-08-27T03:54:14.427Z,6.50
2022-08-27T04:04:20.226Z,6.40
2022-08-27T04:14:26.664Z,6.10
2022-08-27T04:24:34.753Z,6.70
2022-08-27T04:34:41.166Z,6.40
2022-08-27T04:44:48.299Z,5.90
2022-08-27T04:54:55.429Z,6.60
2022-08-27T05:05:01.363Z,6.00
2022-08-27T05:15:09.382Z,6.20
2022-08-27T05:35:19.875Z,5.30
2022-08-27T05:45:25.606Z,6.20
2022-08-27T06:05:35.883Z,5.50
2022-08-27T06:15:41.644Z,5.40
2022-08-27T06:25:47.637Z,5.10
2022-08-27T06:35:53.474Z,5.00
2022-08-27T06:46:03.236Z,5.20
2022-08-27T06:56:13.920Z,5.20
2022-08-27T07:06:20.101Z,5.20
2022-08-27T07:16:28.212Z,5.30
2022-08-27T07:26:35.253Z,6.10
2022-08-27T07:36:41.244Z,6.60
2022-08-27T07:46:49.618Z,7.90
2022-08-27T07:56:56.246Z,8.90
2022-08-27T08:07:02.578Z,10.10
2022-08-27T08:17:10.399Z,11.20
2022-08-27T08:27:16.643Z,7.00
2022-08-27T08:37:24.229Z,4.70
2022-08-27T08:47:33.701Z,4.50
2022-08-27T08:57:45.061Z,4.90
2022-08-27T09:08:21.335Z,4.60
2022-08-27T09:18:27.970Z,5.50
2022-08-27T09:28:51.709Z,4.60
2022-08-27T09:39:02.308Z,4.80
2022-08-27T09:49:14.755Z,4.50
2022-08-27T09:59:27.293Z,4.50
2022-08-27T10:09:35.802Z,3.50
2022-08-27T10:19:55.227Z,3.90
2022-08-27T10:30:08.820Z,3.70
2022-08-27T10:40:23.668Z,3.60
2022-08-27T10:50:36.599Z,3.90
2022-08-27T11:00:49.992Z,3.50
2022-08-27T11:11:07.618Z,5.00
2022-08-27T11:21:34.794Z,3.30
2022-08-27T11:31:50.304Z,4.60
2022-08-27T11:42:10.792Z,3.10
2022-08-27T11:52:27.205Z,4.20
2022-08-27T12:02:35.666Z,3.90
2022-08-27T12:12:52.495Z,3.40
2022-08-27T12:23:31.820Z,3.70
2022-08-27T12:33:43.277Z,4.50
2022-08-27T12:43:49.161Z,4.90
2022-08-27T12:54:02.546Z,4.50
2022-08-27T13:04:16.435Z,3.90
2022-08-27T13:14:23.580Z,3.90
2022-08-27T13:24:33.775Z,3.90
2022-08-27T13:34:41.554Z,4.40
2022-08-27T13:44:48.394Z,4.10
2022-08-27T13:55:05.865Z,3.70
2022-08-27T14:05:15.546Z,4.00
2022-08-27T14:15:25.119Z,3.80
2022-08-27T14:25:31.773Z,4.60
2022-08-27T14:35:38.906Z,4.30
2022-08-27T14:45:47.237Z,4.10
2022-08-27T14:55:54.777Z,3.70
2022-08-27T15:06:00.800Z,3.90
2022-08-27T15:16:07.509Z,4.50
2022-08-27T15:26:13.326Z,5.00
2022-08-27T15:36:19.538Z,4.20
2022-08-27T15:46:25.751Z,4.60
2022-08-27T15:56:34.625Z,3.90
2022-08-27T16:06:40.868Z,4.60
2022-08-27T16:16:50.059Z,5.00
2022-08-27T16:26:55.637Z,5.40
2022-08-27T16:37:01.452Z,4.30
2022-08-27T16:47:07.818Z,5.10
2022-08-27T16:57:13.681Z,5.20
2022-08-27T17:07:26.015Z,6.10
2022-08-27T17:17:32.127Z,5.30
2022-08-27T17:27:37.802Z,5.80
2022-08-27T17:37:44.556Z,6.30
2022-08-27T17:47:50.254Z,6.40
2022-08-27T17:57:55.952Z,5.60
2022-08-27T18:08:01.975Z,5.30
2022-08-27T18:18:09.405Z,6.00
2022-08-27T18:28:18.037Z,6.70
2022-08-27T18:38:23.993Z,6.40
2022-08-27T18:48:30.179Z,6.10
2022-08-27T18:58:38.617Z,6.40
2022-08-27T19:08:44.875Z,7.50
2022-08-27T19:18:51.082Z,7.40
2022-08-27T19:28:56.864Z,7.80
2022-08-27T19:39:03.572Z,10.10
2022-08-27T19:49:09.398Z,9.30
2022-08-27T19:59:21.222Z,7.80
2022-08-27T20:09:27.875Z,10.10
2022-08-27T20:19:33.603Z,7.60
2022-08-27T20:29:41.182Z,7.70
2022-08-27T20:39:47.909Z,9.00
2022-08-27T20:49:53.871Z,8.70
2022-08-27T21:00:17.837Z,9.50
2022-08-27T21:10:25.734Z,8.30
2022-08-27T21:20:32.323Z,8.40
2022-08-27T21:30:38.540Z,9.60
2022-08-27T21:40:44.597Z,9.40
2022-08-27T21:50:53.482Z,9.90
2022-08-27T22:01:01.780Z,10.70
2022-08-27T22:21:12.844Z,10.10
2022-08-27T22:31:18.800Z,10.40
2022-08-27T22:41:24.634Z,10.10
2022-08-27T22:51:30.632Z,11.00
2022-08-27T23:01:37.210Z,10.90
2022-08-27T23:11:43.844Z,12.10
2022-08-27T23:21:50.042Z,11.90
2022-08-27T23:31:58.514Z,11.90
2022-08-27T23:42:04.496Z,10.60
2022-08-27T23:52:11.107Z,10.60
